Time;durP1;ratioP1;P1;durP2;ratioP2;P2;SDS_P1;SDS_P2;PMS_P1;PMS_P2;Temp;Humidity;BMP_temperature;BMP_pressure;BME280_temperature;BME280_humidity;BME280_pressure;Samples;Min_cycle;Max_cycle;Signal;HPM_P1;HPM_P2
2022/10/23 00:01:28;;;;;;;17.80;12.63;;;10.70;99.90;;;;;;4966192;28;20039;-68
2022/10/23 00:03:57;;;;;;;19.95;13.18;;;10.70;99.90;;;;;;4944656;28;20043;-67
2022/10/23 00:06:23;;;;;;;22.75;12.90;;;10.60;99.90;;;;;;4962883;28;20050;-67
2022/10/23 00:08:49;;;;;;;19.27;13.82;;;10.70;99.90;;;;;;4963072;28;20054;-69
2022/10/23 00:11:17;;;;;;;28.13;13.55;;;10.60;99.90;;;;;;4964441;28;20085;-67
2022/10/23 00:13:44;;;;;;;20.08;14.70;;;10.70;99.90;;;;;;4965806;28;20047;-67
2022/10/23 00:16:09;;;;;;;26.90;13.20;;;10.70;99.90;;;;;;4965378;28;20035;-67
2022/10/23 00:18:36;;;;;;;23.85;13.52;;;10.70;99.90;;;;;;4965958;28;20050;-70
2022/10/23 00:21:02;;;;;;;28.13;15.15;;;10.70;99.90;;;;;;4978784;28;20150;-66
2022/10/23 00:23:29;;;;;;;24.35;13.10;;;10.60;99.90;;;;;;4966019;28;20066;-67
2022/10/23 00:25:54;;;;;;;24.13;15.05;;;10.70;99.90;;;;;;4963173;28;20059;-68
2022/10/23 00:28:20;;;;;;;19.42;13.05;;;10.70;99.90;;;;;;4963002;28;20077;-68
2022/10/23 00:30:45;;;;;;;18.50;12.63;;;10.70;99.90;;;;;;4963771;28;20049;-68
2022/10/23 00:33:11;;;;;;;18.35;12.93;;;10.60;99.90;;;;;;4964785;28;20079;-69
2022/10/23 00:35:41;;;;;;;22.27;13.73;;;10.60;99.90;;;;;;4962525;28;20038;-67
2022/10/23 00:38:07;;;;;;;22.17;12.02;;;10.60;99.90;;;;;;4963584;28;20397;-68
2022/10/23 00:40:33;;;;;;;14.05;11.10;;;10.60;99.90;;;;;;4963967;28;20988;-67
2022/10/23 00:42:59;;;;;;;21.50;12.18;;;10.60;99.90;;;;;;4964965;28;20039;-68
2022/10/23 00:45:30;;;;;;;16.63;12.98;;;10.60;99.90;;;;;;4967028;28;20042;-68
2022/10/23 00:47:56;;;;;;;24.00;13.52;;;10.60;99.90;;;;;;4959325;28;20272;-68
2022/10/23 00:50:24;;;;;;;19.73;11.02;;;10.60;99.90;;;;;;4964973;28;20122;-68
2022/10/23 00:52:51;;;;;;;20.20;11.50;;;10.60;99.90;;;;;;4962855;28;20046;-68
2022/10/23 00:55:19;;;;;;;19.15;11.43;;;10.60;99.90;;;;;;4962625;28;20038;-68
2022/10/23 00:57:46;;;;;;;23.85;12.05;;;10.60;99.90;;;;;;4960504;28;20134;-67
2022/10/23 01:00:22;;;;;;;24.83;13.68;;;10.70;99.90;;;;;;4961200;28;20125;-69
2022/10/23 01:02:48;;;;;;;24.15;12.85;;;10.60;99.90;;;;;;4944106;28;20055;-69
2022/10/23 01:05:13;;;;;;;20.13;10.50;;;10.60;99.90;;;;;;4959512;28;20101;-67
2022/10/23 01:07:49;;;;;;;19.25;8.65;;;10.60;99.90;;;;;;4960072;28;20042;-69
2022/10/23 01:10:27;;;;;;;20.45;9.20;;;10.60;99.90;;;;;;4944067;28;20038;-67
2022/10/23 01:13:22;;;;;;;12.20;8.27;;;10.60;99.90;;;;;;4960604;28;20074;-66
2022/10/23 01:16:01;;;;;;;32.50;7.05;;;10.60;99.90;;;;;;4961006;28;20049;-67
2022/10/23 01:18:38;;;;;;;34.25;7.10;;;10.60;99.90;;;;;;4962687;28;20409;-67
2022/10/23 01:21:13;;;;;;;37.33;7.43;;;10.60;99.90;;;;;;4962015;28;20050;-67
2022/10/23 01:24:05;;;;;;;121.60;9.73;;;10.50;99.90;;;;;;4958459;28;20133;-67
2022/10/23 01:26:54;;;;;;;19.73;8.20;;;10.50;99.90;;;;;;4944666;28;20054;-69
2022/10/23 01:29:35;;;;;;;15.45;8.98;;;10.50;99.90;;;;;;4960295;28;20058;-67
2022/10/23 01:32:20;;;;;;;11.52;9.45;;;10.50;99.90;;;;;;4963007;28;22215;-69
2022/10/23 01:34:56;;;;;;;12.50;9.80;;;10.50;99.90;;;;;;4959736;28;20425;-69
2022/10/23 01:37:32;;;;;;;22.55;11.52;;;10.50;99.90;;;;;;4961808;28;20042;-68
2022/10/23 01:40:02;;;;;;;26.73;12.13;;;10.50;99.90;;;;;;4960824;28;20065;-68
2022/10/23 01:42:33;;;;;;;21.92;11.60;;;10.50;99.90;;;;;;4962654;28;20049;-69
2022/10/23 01:45:07;;;;;;;23.98;10.68;;;10.40;99.90;;;;;;4958475;28;20769;-65
2022/10/23 01:47:34;;;;;;;52.65;10.43;;;10.50;99.90;;;;;;4959385;28;20042;-69
2022/10/23 01:50:03;;;;;;;126.05;8.80;;;10.40;99.90;;;;;;4961386;28;20126;-69
2022/10/23 01:52:30;;;;;;;213.10;9.43;;;10.40;99.90;;;;;;4960533;28;20046;-67
2022/10/23 01:54:59;;;;;;;78.78;6.75;;;10.30;99.90;;;;;;4961930;28;20046;-69
2022/10/23 01:57:28;;;;;;;26.92;6.05;;;10.30;99.90;;;;;;4961921;28;20110;-68
2022/10/23 02:00:04;;;;;;;16.33;4.88;;;10.30;99.90;;;;;;4957128;28;20046;-69
2022/10/23 02:02:32;;;;;;;21.17;8.60;;;10.20;99.90;;;;;;4959734;28;20058;-66
2022/10/23 02:05:06;;;;;;;17.45;8.23;;;10.10;99.90;;;;;;4962091;28;20527;-69
2022/10/23 02:07:33;;;;;;;7.40;6.70;;;10.10;99.90;;;;;;4958955;28;20046;-68
2022/10/23 02:09:58;;;;;;;11.18;7.47;;;10.10;99.90;;;;;;4961017;28;20051;-68
2022/10/23 02:12:39;;;;;;;14.98;7.03;;;10.10;99.90;;;;;;4961329;28;20063;-68
2022/10/23 02:15:18;;;;;;;12.18;7.25;;;10.10;99.90;;;;;;4958049;28;20552;-69
2022/10/23 02:18:20;;;;;;;15.10;8.57;;;10.10;99.90;;;;;;4959227;28;20141;-67
2022/10/23 02:20:54;;;;;;;19.40;9.52;;;10.10;99.90;;;;;;4959643;28;20433;-67
2022/10/23 02:23:58;;;;;;;15.23;9.48;;;10.10;99.90;;;;;;4960011;28;20102;-68
2022/10/23 02:26:41;;;;;;;21.13;9.75;;;10.10;99.90;;;;;;4947031;28;20134;-67
2022/10/23 02:29:31;;;;;;;17.83;9.50;;;10.20;99.90;;;;;;4960909;28;20049;-67
2022/10/23 02:31:57;;;;;;;13.05;8.07;;;10.20;99.90;;;;;;4957815;28;20043;-69
2022/10/23 02:34:22;;;;;;;16.33;8.75;;;10.20;99.90;;;;;;4959456;28;20050;-66
2022/10/23 02:36:48;;;;;;;17.77;9.85;;;10.20;99.90;;;;;;4958421;28;20042;-66
2022/10/23 02:39:14;;;;;;;43.92;8.00;;;10.20;99.90;;;;;;4960988;28;20058;-69
2022/10/23 02:41:42;;;;;;;112.00;9.05;;;10.20;99.90;;;;;;4960757;28;20094;-65
2022/10/23 02:44:29;;;;;;;41.47;8.52;;;10.20;99.90;;;;;;4960656;28;20042;-68
2022/10/23 02:46:55;;;;;;;21.30;7.78;;;10.20;99.90;;;;;;4959186;28;20055;-69
2022/10/23 02:49:34;;;;;;;17.90;7.65;;;10.20;99.90;;;;;;4960269;28;20101;-67
2022/10/23 02:52:00;;;;;;;24.23;7.82;;;10.10;99.90;;;;;;4960604;28;20049;-69
2022/10/23 02:55:11;;;;;;;15.93;8.13;;;10.20;99.90;;;;;;4959090;28;20054;-68
2022/10/23 02:57:48;;;;;;;26.08;8.10;;;10.20;99.90;;;;;;4948789;28;20047;-67
2022/10/23 03:00:16;;;;;;;51.38;9.80;;;10.10;99.90;;;;;;4959659;28;20126;-68
2022/10/23 03:02:49;;;;;;;29.50;10.20;;;10.20;99.90;;;;;;4962669;28;20038;-69
2022/10/23 03:05:20;;;;;;;23.85;10.27;;;10.20;99.90;;;;;;4960454;28;20395;-67
2022/10/23 03:07:46;;;;;;;17.05;9.93;;;10.10;99.90;;;;;;4953382;28;20383;-69
2022/10/23 03:10:12;;;;;;;20.38;9.32;;;10.10;99.90;;;;;;4961311;28;20066;-69
2022/10/23 03:12:38;;;;;;;18.20;9.35;;;10.10;99.90;;;;;;4958573;28;20051;-67
2022/10/23 03:15:05;;;;;;;17.98;8.60;;;10.10;99.90;;;;;;4957952;28;20047;-70
2022/10/23 03:17:31;;;;;;;14.63;8.00;;;10.10;99.90;;;;;;4957728;28;20050;-67
2022/10/23 03:19:56;;;;;;;15.30;7.15;;;10.10;99.90;;;;;;4957820;28;20046;-67
2022/10/23 03:22:22;;;;;;;19.45;6.47;;;10.10;99.90;;;;;;4965982;28;20097;-71
2022/10/23 03:24:47;;;;;;;19.45;7.03;;;10.10;99.90;;;;;;4963174;28;20122;-68
2022/10/23 03:27:13;;;;;;;25.42;6.18;;;10.00;99.90;;;;;;4943084;28;20047;-67
2022/10/23 03:29:39;;;;;;;44.83;6.07;;;10.00;99.90;;;;;;4961831;28;20081;-69
2022/10/23 03:32:05;;;;;;;17.35;4.93;;;9.90;99.90;;;;;;4962721;28;20055;-67
2022/10/23 03:34:30;;;;;;;24.92;5.50;;;9.90;99.90;;;;;;4963722;28;20070;-67
2022/10/23 03:36:56;;;;;;;14.25;5.28;;;9.80;99.90;;;;;;4961565;28;20066;-68
2022/10/23 03:39:21;;;;;;;12.15;5.30;;;9.80;99.90;;;;;;4963398;28;20070;-69
2022/10/23 03:41:47;;;;;;;15.52;4.75;;;9.80;99.90;;;;;;4962437;28;20043;-67
2022/10/23 03:44:13;;;;;;;13.70;5.43;;;9.80;99.90;;;;;;4964143;28;20054;-67
2022/10/23 03:46:39;;;;;;;12.80;6.55;;;9.80;99.90;;;;;;4962369;28;20046;-69
2022/10/23 03:49:05;;;;;;;13.40;6.15;;;9.80;99.90;;;;;;4962308;28;20141;-69
2022/10/23 03:51:30;;;;;;;9.88;6.43;;;9.80;99.90;;;;;;4962249;28;20100;-68
2022/10/23 03:53:56;;;;;;;13.57;7.47;;;9.80;99.90;;;;;;4964009;28;20588;-67
2022/10/23 03:56:22;;;;;;;12.82;8.13;;;9.80;99.90;;;;;;4964483;28;20047;-68
2022/10/23 03:58:47;;;;;;;15.40;9.95;;;9.80;99.90;;;;;;4962983;28;20059;-67
2022/10/23 04:01:13;;;;;;;20.13;9.95;;;9.80;99.90;;;;;;4962403;28;20043;-68
2022/10/23 04:03:39;;;;;;;21.42;10.90;;;9.80;99.90;;;;;;4962238;28;20046;-69
2022/10/23 04:06:05;;;;;;;18.35;12.00;;;9.80;99.90;;;;;;4963422;28;20050;-68
2022/10/23 04:08:30;;;;;;;19.17;11.32;;;9.80;99.90;;;;;;4960932;28;20050;-67
2022/10/23 04:10:56;;;;;;;24.50;13.02;;;9.80;99.90;;;;;;4945918;28;20035;-67
2022/10/23 04:13:21;;;;;;;26.02;13.32;;;9.90;99.90;;;;;;4964854;28;20051;-68
2022/10/23 04:15:51;;;;;;;80.18;13.98;;;9.90;99.90;;;;;;4964066;28;20055;-69
2022/10/23 04:18:18;;;;;;;81.70;14.20;;;9.90;99.90;;;;;;4963747;28;20043;-67
2022/10/23 04:20:47;;;;;;;53.28;12.70;;;9.90;99.90;;;;;;4963782;28;20053;-68
2022/10/23 04:23:12;;;;;;;22.70;10.40;;;9.90;99.90;;;;;;4946132;28;20047;-68
2022/10/23 04:25:38;;;;;;;15.13;10.32;;;9.90;99.90;;;;;;4964955;28;20117;-67
2022/10/23 04:28:03;;;;;;;17.20;11.00;;;9.80;99.90;;;;;;4963784;28;20186;-67
2022/10/23 04:30:29;;;;;;;17.33;10.65;;;9.80;99.90;;;;;;4960815;28;20067;-67
2022/10/23 04:32:54;;;;;;;19.58;10.82;;;9.80;99.90;;;;;;4962839;28;20047;-67
2022/10/23 04:35:20;;;;;;;23.40;11.93;;;9.80;99.90;;;;;;4962750;28;20141;-70
2022/10/23 04:37:46;;;;;;;21.20;12.05;;;9.80;99.90;;;;;;4974510;28;21131;-67
2022/10/23 04:40:11;;;;;;;39.03;14.50;;;9.80;99.90;;;;;;4962935;28;20078;-67
2022/10/23 04:42:37;;;;;;;46.40;13.15;;;9.80;99.90;;;;;;4964572;28;20055;-67
2022/10/23 04:45:03;;;;;;;29.80;14.45;;;9.80;99.90;;;;;;4961719;28;20494;-68
2022/10/23 04:47:29;;;;;;;40.17;13.80;;;9.80;99.90;;;;;;4963617;28;20417;-67
2022/10/23 04:49:55;;;;;;;21.50;13.57;;;9.80;99.90;;;;;;4965189;28;20047;-67
2022/10/23 04:52:23;;;;;;;19.90;13.95;;;9.80;99.90;;;;;;4964419;28;20050;-70
2022/10/23 04:54:49;;;;;;;19.58;13.63;;;9.70;99.90;;;;;;4956897;28;20043;-67
2022/10/23 04:57:14;;;;;;;26.52;15.50;;;9.70;99.90;;;;;;4963500;28;20057;-69
2022/10/23 04:59:40;;;;;;;17.52;12.75;;;9.80;99.90;;;;;;4959737;28;20062;-67
2022/10/23 05:02:05;;;;;;;140.07;12.38;;;9.70;99.90;;;;;;4959852;28;20517;-68
2022/10/23 05:04:31;;;;;;;173.55;14.55;;;9.70;99.90;;;;;;4963050;28;20125;-68
2022/10/23 05:06:57;;;;;;;46.70;10.90;;;9.70;99.90;;;;;;4960579;28;20108;-68
2022/10/23 05:09:22;;;;;;;42.08;11.60;;;9.70;99.90;;;;;;4960949;28;20105;-68
2022/10/23 05:11:48;;;;;;;37.03;11.57;;;9.70;99.90;;;;;;4962697;28;20493;-69
2022/10/23 05:14:14;;;;;;;33.50;11.77;;;9.60;99.90;;;;;;4960229;28;20061;-67
2022/10/23 05:16:48;;;;;;;41.50;12.70;;;9.60;99.90;;;;;;4961622;28;20047;-68
2022/10/23 05:19:19;;;;;;;35.67;13.38;;;9.60;99.90;;;;;;4962700;28;20126;-67
2022/10/23 05:21:47;;;;;;;34.22;14.18;;;9.60;99.90;;;;;;4962056;28;20051;-67
2022/10/23 05:24:13;;;;;;;36.80;15.30;;;9.60;99.90;;;;;;4961992;28;20064;-69
2022/10/23 05:26:38;;;;;;;52.65;15.10;;;9.70;99.90;;;;;;4959839;28;20478;-67
2022/10/23 05:29:04;;;;;;;65.18;17.38;;;9.60;99.90;;;;;;4961071;28;20114;-68
2022/10/23 05:31:32;;;;;;;23.50;16.77;;;9.70;99.90;;;;;;4962160;28;20050;-70
2022/10/23 05:33:59;;;;;;;29.38;17.25;;;9.70;99.90;;;;;;4963982;28;20047;-67
2022/10/23 05:36:25;;;;;;;31.55;18.17;;;9.70;99.90;;;;;;4961974;28;20050;-70
2022/10/23 05:38:51;;;;;;;39.40;19.75;;;9.70;99.90;;;;;;4961740;28;20055;-68
2022/10/23 05:41:17;;;;;;;45.78;19.77;;;9.70;99.90;;;;;;4962392;28;20137;-67
2022/10/23 05:43:42;;;;;;;32.47;19.30;;;9.80;99.90;;;;;;4961009;28;20108;-67
2022/10/23 05:46:08;;;;;;;29.70;19.13;;;9.80;99.90;;;;;;4963138;28;20043;-68
2022/10/23 05:48:34;;;;;;;35.30;18.40;;;9.80;99.90;;;;;;4963069;28;20042;-67
2022/10/23 05:51:08;;;;;;;38.13;19.58;;;9.80;99.90;;;;;;4960944;28;20241;-67
2022/10/23 05:53:34;;;;;;;33.75;20.58;;;9.80;99.90;;;;;;4960966;28;20039;-68
2022/10/23 05:56:06;;;;;;;34.28;20.08;;;9.90;99.90;;;;;;4957195;28;20504;-67
2022/10/23 05:58:32;;;;;;;;;;;9.80;99.90;;;;;;4958826;28;20043;-69
2022/10/23 06:00:58;;;;;;;36.30;19.13;;;9.90;99.90;;;;;;4973830;28;19929;-69
2022/10/23 06:03:24;;;;;;;33.15;20.42;;;9.90;99.90;;;;;;4958717;28;20169;-69
2022/10/23 06:05:50;;;;;;;38.97;20.73;;;9.90;99.90;;;;;;4960111;28;20140;-69
2022/10/23 06:08:15;;;;;;;34.95;19.48;;;9.90;99.90;;;;;;4960503;28;20079;-69
2022/10/23 06:10:41;;;;;;;34.97;19.50;;;9.90;99.90;;;;;;4960396;28;20051;-68
2022/10/23 06:13:06;;;;;;;29.63;20.20;;;9.90;99.90;;;;;;4958684;28;20967;-67
2022/10/23 06:15:32;;;;;;;32.90;19.52;;;9.90;99.90;;;;;;4959341;28;20047;-69
2022/10/23 06:18:02;;;;;;;31.65;20.80;;;10.00;99.90;;;;;;4957705;28;20043;-67
2022/10/23 06:20:28;;;;;;;33.75;20.42;;;10.00;99.90;;;;;;4960690;28;20047;-69
2022/10/23 06:22:53;;;;;;;33.03;21.48;;;10.00;99.90;;;;;;4960304;28;20540;-68
2022/10/23 06:25:19;;;;;;;34.45;21.83;;;10.00;99.90;;;;;;4955529;28;20085;-69
2022/10/23 06:27:44;;;;;;;36.40;22.05;;;10.00;99.90;;;;;;4961368;28;20101;-69
2022/10/23 06:30:10;;;;;;;33.47;20.98;;;10.10;99.90;;;;;;4958628;28;20058;-67
2022/10/23 06:32:36;;;;;;;49.05;24.25;;;10.10;99.90;;;;;;4958041;28;20387;-69
2022/10/23 06:35:02;;;;;;;31.33;21.27;;;10.10;99.90;;;;;;4961622;28;20038;-67
2022/10/23 06:37:27;;;;;;;31.73;20.95;;;10.20;99.90;;;;;;4955364;28;21028;-68
2022/10/23 06:39:53;;;;;;;35.95;23.38;;;10.20;99.90;;;;;;4961151;28;20046;-69
2022/10/23 06:42:18;;;;;;;32.25;21.13;;;10.20;99.90;;;;;;4960716;28;20043;-68
2022/10/23 06:44:44;;;;;;;42.53;22.40;;;10.20;99.90;;;;;;4960113;28;20046;-69
2022/10/23 06:47:11;;;;;;;35.38;22.98;;;10.20;99.90;;;;;;4961296;28;20517;-69
2022/10/23 06:49:37;;;;;;;33.53;21.00;;;10.30;99.90;;;;;;4960315;28;20505;-68
2022/10/23 06:52:02;;;;;;;35.00;22.63;;;10.30;99.90;;;;;;4956458;28;20039;-69
2022/10/23 06:54:28;;;;;;;35.47;22.50;;;10.30;99.90;;;;;;4961256;28;20037;-68
2022/10/23 06:56:53;;;;;;;38.13;23.00;;;10.30;99.90;;;;;;4960403;28;20051;-68
2022/10/23 06:59:19;;;;;;;31.70;21.08;;;10.30;99.90;;;;;;4960172;28;20058;-68
2022/10/23 07:01:45;;;;;;;33.42;21.27;;;10.40;99.90;;;;;;4957963;28;20051;-67
2022/10/23 07:04:13;;;;;;;37.78;22.00;;;10.40;99.90;;;;;;4960007;28;20417;-69
2022/10/23 07:06:39;;;;;;;35.97;21.77;;;10.40;99.90;;;;;;4961284;28;20034;-69
2022/10/23 07:09:04;;;;;;;35.30;21.05;;;10.40;99.90;;;;;;4961744;28;20498;-67
2022/10/23 07:11:30;;;;;;;41.17;22.48;;;10.50;99.90;;;;;;4960871;28;20058;-68
2022/10/23 07:13:56;;;;;;;45.63;22.15;;;10.50;99.90;;;;;;4960435;28;20051;-67
2022/10/23 07:16:22;;;;;;;38.63;22.15;;;10.50;99.90;;;;;;4962143;28;20047;-68
2022/10/23 07:18:52;;;;;;;36.55;22.05;;;10.50;99.90;;;;;;4957060;28;20059;-67
2022/10/23 07:21:18;;;;;;;35.45;20.65;;;10.60;99.90;;;;;;4961188;28;20038;-69
2022/10/23 07:23:43;;;;;;;44.10;22.98;;;10.60;99.90;;;;;;4962378;28;20568;-70
2022/10/23 07:26:15;;;;;;;38.50;21.35;;;10.60;99.90;;;;;;4959470;28;20051;-66
2022/10/23 07:28:42;;;;;;;40.93;21.70;;;10.60;99.90;;;;;;4956224;28;20046;-71
2022/10/23 07:31:08;;;;;;;41.10;21.70;;;10.70;99.90;;;;;;4959977;28;20047;-67
2022/10/23 07:33:34;;;;;;;45.75;21.83;;;10.80;99.90;;;;;;4960949;28;20608;-70
2022/10/23 07:36:02;;;;;;;33.70;22.02;;;10.80;99.90;;;;;;4959590;28;20039;-68
2022/10/23 07:38:28;;;;;;;36.47;22.00;;;10.80;99.90;;;;;;4956757;28;20046;-68
2022/10/23 07:40:56;;;;;;;39.15;22.70;;;10.90;99.90;;;;;;4976514;28;20058;-69
2022/10/23 07:43:22;;;;;;;33.28;21.23;;;10.90;99.90;;;;;;4960990;28;20452;-68
2022/10/23 07:45:48;;;;;;;41.38;22.60;;;10.90;99.90;;;;;;4959733;28;20042;-66
2022/10/23 07:48:15;;;;;;;35.88;20.02;;;11.00;99.90;;;;;;4958693;28;20444;-66
2022/10/23 07:50:40;;;;;;;43.60;21.83;;;11.00;99.90;;;;;;4959426;28;20051;-69
2022/10/23 07:53:06;;;;;;;38.63;22.88;;;11.00;99.90;;;;;;4960237;28;20508;-68
2022/10/23 07:55:32;;;;;;;38.10;21.65;;;11.10;99.90;;;;;;4959191;28;20057;-68
2022/10/23 07:57:57;;;;;;;40.92;21.77;;;11.10;99.90;;;;;;4958786;28;20047;-68
2022/10/23 08:00:23;;;;;;;33.42;21.48;;;11.20;99.90;;;;;;4958454;28;20066;-69
2022/10/23 08:02:48;;;;;;;43.92;21.48;;;11.30;99.90;;;;;;4959115;28;20621;-69
2022/10/23 08:05:17;;;;;;;37.40;21.08;;;11.30;99.90;;;;;;4958790;28;20070;-67
2022/10/23 08:07:42;;;;;;;38.60;21.08;;;11.30;99.90;;;;;;4959012;28;20053;-68
2022/10/23 08:10:08;;;;;;;31.92;19.92;;;11.40;99.90;;;;;;4964924;28;20519;-68
2022/10/23 08:12:35;;;;;;;37.17;21.35;;;11.50;99.90;;;;;;4962725;28;20417;-68
2022/10/23 08:15:01;;;;;;;43.35;20.70;;;11.50;99.90;;;;;;4961495;28;20050;-68
2022/10/23 08:17:27;;;;;;;37.03;20.02;;;11.60;99.90;;;;;;4963437;28;20049;-69
2022/10/23 08:19:53;;;;;;;37.92;20.08;;;11.60;99.90;;;;;;4962409;28;20054;-68
2022/10/23 08:22:18;;;;;;;36.25;20.27;;;11.60;99.90;;;;;;4961514;28;20657;-69
2022/10/23 08:24:44;;;;;;;37.92;20.80;;;11.70;99.90;;;;;;4966581;28;20051;-72
2022/10/23 08:27:09;;;;;;;35.88;19.02;;;11.80;99.90;;;;;;4947106;28;20046;-69
2022/10/23 08:29:35;;;;;;;34.47;19.65;;;11.80;99.90;;;;;;4956059;28;20061;-68
2022/10/23 08:32:00;;;;;;;27.13;17.58;;;11.80;99.90;;;;;;4962609;28;20038;-67
2022/10/23 08:34:26;;;;;;;33.67;17.92;;;11.90;99.90;;;;;;4963002;28;21990;-66
2022/10/23 08:36:51;;;;;;;28.65;18.20;;;12.00;99.90;;;;;;4961654;28;20618;-69
2022/10/23 08:39:17;;;;;;;32.88;17.20;;;12.00;99.90;;;;;;4964616;28;20089;-69
2022/10/23 08:41:48;;;;;;;28.13;17.23;;;12.10;99.90;;;;;;4948329;28;20120;-69
2022/10/23 08:44:21;;;;;;;28.83;16.38;;;12.10;99.90;;;;;;4968372;28;20497;-69
2022/10/23 08:46:59;;;;;;;30.70;15.52;;;12.20;99.90;;;;;;4966418;28;20057;-69
2022/10/23 08:49:27;;;;;;;25.92;15.57;;;12.30;99.90;;;;;;4963506;28;20165;-68
2022/10/23 08:51:56;;;;;;;29.00;16.15;;;12.30;99.90;;;;;;4963603;28;20054;-67
2022/10/23 08:54:51;;;;;;;27.90;15.95;;;12.40;99.90;;;;;;4966182;28;20043;-67
2022/10/23 08:57:17;;;;;;;25.20;14.57;;;12.40;99.90;;;;;;4963549;28;20047;-73
2022/10/23 08:59:47;;;;;;;26.33;14.50;;;12.50;99.90;;;;;;4959103;28;20042;-72
2022/10/23 09:02:30;;;;;;;26.40;15.13;;;12.60;99.90;;;;;;4946662;28;20065;-68
2022/10/23 09:04:57;;;;;;;23.42;14.75;;;12.60;99.90;;;;;;4967730;28;20050;-66
2022/10/23 09:07:40;;;;;;;21.33;13.52;;;12.70;99.90;;;;;;4963859;28;20583;-67
2022/10/23 09:10:30;;;;;;;29.25;14.73;;;12.80;99.90;;;;;;4963728;28;20039;-66
2022/10/23 09:13:38;;;;;;;24.20;14.10;;;12.80;99.90;;;;;;4964802;28;20038;-67
2022/10/23 09:16:36;;;;;;;22.02;12.68;;;12.90;99.90;;;;;;4963335;28;20060;-68
2022/10/23 09:19:14;;;;;;;25.90;12.32;;;13.00;99.90;;;;;;4962818;28;20051;-68
2022/10/23 09:21:40;;;;;;;24.02;12.02;;;13.10;99.90;;;;;;4962402;28;20074;-68
2022/10/23 09:24:13;;;;;;;19.52;13.15;;;13.10;99.90;;;;;;4958583;28;20070;-67
2022/10/23 09:26:41;;;;;;;23.58;11.90;;;13.10;99.90;;;;;;4954606;28;20179;-68
2022/10/23 09:29:20;;;;;;;26.63;12.32;;;13.20;99.90;;;;;;4956916;28;21632;-68
2022/10/23 09:31:51;;;;;;;20.40;12.23;;;13.30;99.90;;;;;;4976923;28;20181;-69
2022/10/23 09:34:20;;;;;;;20.92;11.65;;;13.40;99.90;;;;;;4959944;28;20438;-67
2022/10/23 09:36:55;;;;;;;19.13;11.18;;;13.50;99.90;;;;;;4963830;28;20054;-67
2022/10/23 09:39:27;;;;;;;16.58;9.85;;;13.50;99.90;;;;;;4958727;28;20062;-68
2022/10/23 09:41:56;;;;;;;15.82;10.13;;;13.60;99.90;;;;;;4963383;28;20035;-69
2022/10/23 09:44:31;;;;;;;15.95;10.90;;;13.60;99.90;;;;;;4958671;28;20065;-66
2022/10/23 09:47:11;;;;;;;18.05;9.85;;;13.70;99.90;;;;;;4962324;28;20062;-71
2022/10/23 09:49:45;;;;;;;23.63;9.93;;;13.80;99.90;;;;;;4960022;28;20046;-66
2022/10/23 09:52:10;;;;;;;21.95;9.40;;;13.80;99.90;;;;;;4962411;28;20365;-69
2022/10/23 09:54:45;;;;;;;17.52;8.77;;;13.90;99.90;;;;;;4962433;28;20140;-69
2022/10/23 09:57:32;;;;;;;15.63;8.88;;;14.00;99.90;;;;;;4958311;28;20532;-67
2022/10/23 10:00:03;;;;;;;14.68;8.10;;;14.10;99.90;;;;;;4959694;28;20043;-68
2022/10/23 10:02:30;;;;;;;14.48;8.45;;;14.10;99.90;;;;;;4958800;28;20081;-67
2022/10/23 10:04:56;;;;;;;13.30;7.78;;;14.20;99.90;;;;;;4963066;28;20418;-68
2022/10/23 10:07:24;;;;;;;17.17;8.32;;;14.20;99.90;;;;;;4962843;28;20046;-66
2022/10/23 10:09:52;;;;;;;13.68;8.02;;;14.30;99.90;;;;;;4964136;28;20051;-69
2022/10/23 10:12:48;;;;;;;18.35;7.13;;;14.40;99.90;;;;;;4959758;28;20074;-66
2022/10/23 10:15:34;;;;;;;16.80;7.05;;;14.50;99.90;;;;;;4963622;28;20393;-69
2022/10/23 10:18:18;;;;;;;12.57;6.40;;;14.60;99.90;;;;;;4964609;28;20073;-67
2022/10/23 10:21:19;;;;;;;15.10;6.47;;;14.60;99.90;;;;;;4968438;28;20039;-68
2022/10/23 10:23:57;;;;;;;17.80;6.30;;;14.70;99.90;;;;;;4963380;28;20745;-68
2022/10/23 10:26:36;;;;;;;14.95;6.57;;;14.80;99.90;;;;;;4959724;28;20047;-67
2022/10/23 10:29:28;;;;;;;12.63;5.93;;;15.00;99.90;;;;;;4963882;28;20070;-67
2022/10/23 10:32:15;;;;;;;10.63;5.90;;;15.00;99.90;;;;;;4964575;28;20517;-68
2022/10/23 10:34:57;;;;;;;9.63;5.40;;;15.10;99.90;;;;;;4961690;28;20709;-68
2022/10/23 10:37:44;;;;;;;12.13;5.30;;;15.10;99.90;;;;;;4960827;28;20043;-68
2022/10/23 10:40:28;;;;;;;11.57;4.65;;;15.20;99.90;;;;;;4965777;28;20046;-67
2022/10/23 10:43:12;;;;;;;7.22;4.88;;;15.30;99.90;;;;;;4964526;28;20058;-67
2022/10/23 10:45:46;;;;;;;7.50;4.47;;;15.30;99.90;;;;;;4966009;28;20122;-68
2022/10/23 10:48:27;;;;;;;8.52;4.13;;;15.30;99.90;;;;;;4965308;28;20035;-67
2022/10/23 10:51:06;;;;;;;10.80;4.05;;;15.30;99.90;;;;;;4961924;28;20059;-68
2022/10/23 10:53:46;;;;;;;12.45;4.10;;;15.30;99.90;;;;;;4961893;28;20038;-68
2022/10/23 10:56:15;;;;;;;12.80;4.38;;;15.30;99.90;;;;;;4959480;28;20053;-69
2022/10/23 10:59:04;;;;;;;9.30;4.22;;;15.30;99.90;;;;;;4963708;28;20046;-67
2022/10/23 11:02:00;;;;;;;10.43;4.40;;;15.30;99.90;;;;;;4962894;28;20522;-68
2022/10/23 11:05:14;;;;;;;11.35;4.18;;;15.40;99.90;;;;;;4945782;28;20050;-70
2022/10/23 11:07:51;;;;;;;9.50;4.40;;;15.40;99.90;;;;;;4950301;28;20066;-68
2022/10/23 11:10:18;;;;;;;7.78;3.97;;;15.30;99.90;;;;;;4936913;28;20047;-66
2022/10/23 11:12:45;;;;;;;11.27;4.13;;;15.30;99.90;;;;;;4966358;28;20035;-68
2022/10/23 11:15:26;;;;;;;11.75;4.78;;;15.30;99.90;;;;;;4963271;28;20102;-67
2022/10/23 11:17:58;;;;;;;11.15;4.32;;;15.30;99.90;;;;;;4950968;28;20049;-68
2022/10/23 11:20:26;;;;;;;11.43;3.88;;;15.20;99.90;;;;;;4963175;28;20046;-67
2022/10/23 11:23:15;;;;;;;9.20;4.25;;;15.20;99.90;;;;;;4960251;28;20165;-67
2022/10/23 11:26:20;;;;;;;16.60;4.55;;;15.20;99.90;;;;;;4959700;28;20102;-68
2022/10/23 11:29:08;;;;;;;11.77;4.28;;;15.20;99.90;;;;;;4949258;28;20156;-68
2022/10/23 11:32:02;;;;;;;12.20;3.70;;;15.20;99.90;;;;;;4962630;28;20055;-66
2022/10/23 11:34:59;;;;;;;10.20;4.00;;;15.10;99.90;;;;;;4961155;28;20047;-67
2022/10/23 11:37:25;;;;;;;14.43;4.32;;;15.20;99.90;;;;;;4963312;28;20155;-70
2022/10/23 11:40:16;;;;;;;7.05;3.65;;;15.20;99.90;;;;;;4958189;28;20046;-67
2022/10/23 11:42:42;;;;;;;10.57;3.92;;;15.20;99.90;;;;;;4964239;28;20045;-68
2022/10/23 11:45:31;;;;;;;7.90;4.00;;;15.30;99.90;;;;;;4964107;28;20046;-68
2022/10/23 11:48:05;;;;;;;13.15;3.60;;;15.30;99.90;;;;;;4970129;28;20039;-67
2022/10/23 11:50:54;;;;;;;9.55;3.55;;;15.30;99.90;;;;;;4968756;28;20061;-69
2022/10/23 11:53:23;;;;;;;7.25;3.70;;;15.40;99.90;;;;;;4962129;28;20038;-68
2022/10/23 11:56:21;;;;;;;17.23;4.15;;;15.40;99.90;;;;;;4952789;28;20058;-69
2022/10/23 11:58:48;;;;;;;11.70;3.33;;;15.40;99.90;;;;;;4940053;28;20058;-68
2022/10/23 12:01:29;;;;;;;7.63;3.20;;;15.40;99.90;;;;;;4965702;28;20489;-69
2022/10/23 12:03:58;;;;;;;11.77;3.58;;;15.50;99.90;;;;;;4972384;28;20074;-69
2022/10/23 12:06:47;;;;;;;10.10;3.05;;;15.40;99.90;;;;;;4963500;28;20046;-69
2022/10/23 12:09:24;;;;;;;10.98;3.38;;;15.50;99.90;;;;;;4966321;28;20042;-68
2022/10/23 12:12:08;;;;;;;10.90;3.05;;;15.50;99.90;;;;;;4959699;28;20110;-69
2022/10/23 12:14:44;;;;;;;6.47;3.08;;;15.50;99.90;;;;;;4982355;28;20047;-69
2022/10/23 12:17:27;;;;;;;8.38;3.38;;;15.50;99.90;;;;;;4966885;28;20038;-69
2022/10/23 12:20:06;;;;;;;5.75;3.08;;;15.60;99.90;;;;;;4963358;28;20375;-69
2022/10/23 12:23:01;;;;;;;6.53;3.47;;;15.60;99.90;;;;;;4961540;28;20050;-66
2022/10/23 12:25:45;;;;;;;8.68;3.00;;;15.60;99.90;;;;;;4941613;28;20054;-68
2022/10/23 12:28:41;;;;;;;8.52;3.55;;;15.70;99.90;;;;;;4961832;28;20051;-66
2022/10/23 12:31:30;;;;;;;10.30;3.53;;;15.80;99.90;;;;;;4959668;28;20039;-66
2022/10/23 12:34:20;;;;;;;6.90;3.10;;;15.70;99.90;;;;;;4957359;28;20039;-67
2022/10/23 12:37:27;;;;;;;11.80;2.95;;;15.80;99.90;;;;;;4956961;28;20576;-67
2022/10/23 12:39:57;;;;;;;10.20;3.40;;;15.80;99.90;;;;;;4965880;28;20078;-67
2022/10/23 12:42:26;;;;;;;12.15;3.58;;;15.80;99.90;;;;;;4966515;28;20398;-68
2022/10/23 12:45:04;;;;;;;7.32;3.22;;;15.80;99.90;;;;;;4962276;28;20087;-67
2022/10/23 12:47:30;;;;;;;9.70;3.22;;;15.80;99.90;;;;;;4959736;28;20182;-67
2022/10/23 12:49:56;;;;;;;8.77;3.40;;;15.80;99.90;;;;;;4961783;28;20142;-68
2022/10/23 12:52:24;;;;;;;10.73;2.92;;;15.80;99.90;;;;;;4965106;28;20442;-68
2022/10/23 12:54:50;;;;;;;10.45;3.10;;;15.70;99.90;;;;;;4958729;28;20684;-66
2022/10/23 12:57:29;;;;;;;8.50;2.55;;;15.70;99.90;;;;;;4972113;28;20047;-67
2022/10/23 12:59:59;;;;;;;9.00;3.28;;;15.70;99.90;;;;;;4961514;28;20256;-67